Time;durP1;ratioP1;P1;durP2;ratioP2;P2;SDS_P1;SDS_P2;PMS_P1;PMS_P2;Temp;Humidity;BMP_temperature;BMP_pressure;BME280_temperature;BME280_humidity;BME280_pressure;Samples;Min_cycle;Max_cycle;Signal;HPM_P1;HPM_P2
2023/03/20 00:01:20;;;;;;;;;;;;;;;;;;5005198;28;19929;-79
2023/03/20 00:03:46;;;;;;;;;;;;;;;;;;5017613;28;19926;-79
2023/03/20 00:06:12;;;;;;;;;;;;;;;;;;5021614;28;19956;-76
2023/03/20 00:08:38;;;;;;;;;;;;;;;;;;5020930;28;20032;-76
2023/03/20 00:11:04;;;;;;;;;;;;;;;;;;5024011;28;19936;-79
2023/03/20 00:13:30;;;;;;;;;;;;;;;;;;5025090;28;19929;-79
2023/03/20 00:15:56;;;;;;;;;;;;;;;;;;5023388;28;20393;-78
2023/03/20 00:18:23;;;;;;;;;;;;;;;;;;5009235;28;19936;-77
2023/03/20 00:20:49;;;;;;;;;;;;;;;;;;5022346;28;19941;-78
2023/03/20 00:23:15;;;;;;;;;;;;;;;;;;5019795;28;19926;-77
2023/03/20 00:25:42;;;;;;;;;;;;;;;;;;5039456;28;20324;-78
2023/03/20 00:28:07;;;;;;;;;;;;;;;;;;5020452;28;20068;-78
2023/03/20 00:30:33;;;;;;;;;;;;;;;;;;5017491;28;20505;-78
2023/03/20 00:32:59;;;;;;;;;;;;;;;;;;5018799;28;19979;-77
2023/03/20 00:35:26;;;;;;;;;;;;;;;;;;5024053;28;19929;-77
2023/03/20 00:37:52;;;;;;;;;;;;;;;;;;5022406;28;19933;-78
2023/03/20 00:40:18;;;;;;;;;;;;;;;;;;5018850;28;20466;-79
2023/03/20 00:42:44;;;;;;;;;;;;;;;;;;5015045;28;19929;-79
2023/03/20 00:45:10;;;;;;;;;;;;;;;;;;5025587;28;20298;-77
2023/03/20 00:47:36;;;;;;;;;;;;;;;;;;5014920;28;20026;-74
2023/03/20 00:50:02;;;;;;;;;;;;;;;;;;5015459;28;19933;-74
2023/03/20 00:52:28;;;;;;;;;;;;;;;;;;5014827;28;20008;-79
2023/03/20 00:54:54;;;;;;;;;;;;;;;;;;5015802;28;19947;-78
2023/03/20 00:57:20;;;;;;;;;;;;;;;;;;5021683;28;19948;-78
2023/03/20 00:59:46;;;;;;;;;;;;;;;;;;4996810;28;19925;-77
2023/03/20 01:02:11;;;;;;;;;;;;;;;;;;5015653;28;20884;-75
2023/03/20 01:04:37;;;;;;;;;;;;;;;;;;5015373;28;19933;-78
2023/03/20 01:07:03;;;;;;;;;;;;;;;;;;5018925;28;19995;-79
2023/03/20 01:09:29;;;;;;;;;;;;;;;;;;5016655;28;19929;-77
2023/03/20 01:11:55;;;;;;;;;;;;;;;;;;5015847;28;19948;-78
2023/03/20 01:14:21;;;;;;;;;;;;;;;;;;5001564;28;19934;-74
2023/03/20 01:16:47;;;;;;;;;;;;;;;;;;5013543;28;19929;-77
2023/03/20 01:19:13;;;;;;;;;;;;;;;;;;5013871;28;19975;-79
2023/03/20 01:21:39;;;;;;;;;;;;;;;;;;5018407;28;20013;-78
2023/03/20 01:24:05;;;;;;;;;;;;;;;;;;5012744;28;19951;-76
2023/03/20 01:26:31;;;;;;;;;;;;;;;;;;5016611;28;19925;-76
2023/03/20 01:28:57;;;;;;;;;;;;;;;;;;5021041;28;20443;-79
2023/03/20 01:31:23;;;;;;;;;;;;;;;;;;5017149;28;19929;-79
2023/03/20 01:33:49;;;;;;;;;;;;;;;;;;5020855;28;20408;-77
2023/03/20 01:36:15;;;;;;;;;;;;;;;;;;5029024;28;19979;-77
2023/03/20 01:38:41;;;;;;;;;;;;;;;;;;5026125;28;20019;-78
2023/03/20 01:41:07;;;;;;;;;;;;;;;;;;5019284;28;20007;-78
2023/03/20 01:43:33;;;;;;;;;;;;;;;;;;5018575;28;19925;-79
2023/03/20 01:46:00;;;;;;;;;;;;;;;;;;5014320;28;20019;-76
2023/03/20 01:48:26;;;;;;;;;;;;;;;;;;5016463;28;19938;-79
2023/03/20 01:50:52;;;;;;;;;;;;;;;;;;5018312;28;19921;-75
2023/03/20 01:53:18;;;;;;;;;;;;;;;;;;5014476;28;20403;-77
2023/03/20 01:55:44;;;;;;;;;;;;;;;;;;5025778;28;19943;-78
2023/03/20 01:58:10;;;;;;;;;;;;;;;;;;5016473;28;19936;-74
2023/03/20 02:00:36;;;;;;;;;;;;;;;;;;5018066;28;19925;-78
2023/03/20 02:03:02;;;;;;;;;;;;;;;;;;5018155;28;19925;-76
2023/03/20 02:05:27;;;;;;;;;;;;;;;;;;5021540;28;19929;-75
2023/03/20 02:07:53;;;;;;;;;;;;;;;;;;5018216;28;19979;-78
2023/03/20 02:10:19;;;;;;;;;;;;;;;;;;5019446;28;20012;-79
2023/03/20 02:12:46;;;;;;;;;;;;;;;;;;5023202;28;20288;-78
2023/03/20 02:15:12;;;;;;;;;;;;;;;;;;5014751;28;19929;-77
2023/03/20 02:17:37;;;;;;;;;;;;;;;;;;5017867;28;19929;-78
2023/03/20 02:20:04;;;;;;;;;;;;;;;;;;5015113;28;19936;-78
2023/03/20 02:22:30;;;;;;;;;;;;;;;;;;5013338;28;19931;-78
2023/03/20 02:24:56;;;;;;;;;;;;;;;;;;5031964;28;20363;-79
2023/03/20 02:27:21;;;;;;;;;;;;;;;;;;5035444;28;19925;-77
2023/03/20 02:29:49;;;;;;;;;;;;;;;;;;5027788;28;19935;-77
2023/03/20 02:32:15;;;;;;;;;;;;;;;;;;5019553;28;19930;-78
2023/03/20 02:34:41;;;;;;;;;;;;;;;;;;5018278;28;19928;-75
2023/03/20 02:37:07;;;;;;;;;;;;;;;;;;5022023;28;19983;-79
2023/03/20 02:39:33;;;;;;;;;;;;;;;;;;5032147;28;19990;-78
2023/03/20 02:41:58;;;;;;;;;;;;;;;;;;5023429;28;19929;-74
2023/03/20 02:44:24;;;;;;;;;;;;;;;;;;5018799;28;19929;-75
2023/03/20 02:46:50;;;;;;;;;;;;;;;;;;5022165;28;20604;-78
2023/03/20 02:49:16;;;;;;;;;;;;;;;;;;5013737;28;19933;-76
2023/03/20 02:51:42;;;;;;;;;;;;;;;;;;5012081;28;20056;-78
2023/03/20 02:54:08;;;;;;;;;;;;;;;;;;5014497;28;20016;-74
2023/03/20 02:56:34;;;;;;;;;;;;;;;;;;5011671;28;20369;-78
2023/03/20 02:59:00;;;;;;;;;;;;;;;;;;5015080;28;19929;-78
2023/03/20 03:01:26;;;;;;;;;;;;;;;;;;5017185;28;20348;-74
2023/03/20 03:03:52;;;;;;;;;;;;;;;;;;5015319;28;19925;-78
2023/03/20 03:06:18;;;;;;;;;;;;;;;;;;5018256;28;19935;-77
2023/03/20 03:08:44;;;;;;;;;;;;;;;;;;5013519;28;19932;-76
2023/03/20 03:11:10;;;;;;;;;;;;;;;;;;5019266;28;20051;-78
2023/03/20 03:13:36;;;;;;;;;;;;;;;;;;5017087;28;19921;-77
2023/03/20 03:16:03;;;;;;;;;;;;;;;;;;5028514;28;20064;-78
2023/03/20 03:18:31;;;;;;;;;;;;;;;;;;5015602;28;20831;-76
2023/03/20 03:20:56;;;;;;;;;;;;;;;;;;5018919;28;19940;-79
2023/03/20 03:23:22;;;;;;;;;;;;;;;;;;5013560;28;19930;-76
2023/03/20 03:25:48;;;;;;;;;;;;;;;;;;5015164;28;19929;-77
2023/03/20 03:28:14;;;;;;;;;;;;;;;;;;5013899;28;19928;-77
2023/03/20 03:30:40;;;;;;;;;;;;;;;;;;5016144;28;19940;-76
2023/03/20 03:33:06;;;;;;;;;;;;;;;;;;5012417;28;19931;-75
2023/03/20 03:35:32;;;;;;;;;;;;;;;;;;5017518;28;20296;-77
2023/03/20 03:37:58;;;;;;;;;;;;;;;;;;5016221;28;20028;-77
2023/03/20 03:40:24;;;;;;;;;;;;;;;;;;5018269;28;19928;-79
2023/03/20 03:42:50;;;;;;;;;;;;;;;;;;5017274;28;19994;-78
2023/03/20 03:45:16;;;;;;;;;;;;;;;;;;5018733;28;19929;-77
2023/03/20 03:47:42;;;;;;;;;;;;;;;;;;5014649;28;19933;-78
2023/03/20 03:50:08;;;;;;;;;;;;;;;;;;5022271;28;20316;-78
2023/03/20 03:52:33;;;;;;;;;;;;;;;;;;5013601;28;19925;-73
2023/03/20 03:55:00;;;;;;;;;;;;;;;;;;5022528;28;19929;-78
2023/03/20 03:57:25;;;;;;;;;;;;;;;;;;5018289;28;19933;-77
2023/03/20 03:59:51;;;;;;;;;;;;;;;;;;5018328;28;20048;-78
2023/03/20 04:02:18;;;;;;;;;;;;;;;;;;5018119;28;19936;-79
2023/03/20 04:04:44;;;;;;;;;;;;;;;;;;5018515;28;19925;-77
2023/03/20 04:07:11;;;;;;;;;;;;;;;;;;5019089;28;19932;-77
2023/03/20 04:09:36;;;;;;;;;;;;;;;;;;5020854;28;19984;-76
2023/03/20 04:12:02;;;;;;;;;;;;;;;;;;5019199;28;19925;-78
2023/03/20 04:14:28;;;;;;;;;;;;;;;;;;5018237;28;20000;-78
2023/03/20 04:16:54;;;;;;;;;;;;;;;;;;5016765;28;19999;-77
2023/03/20 04:19:20;;;;;;;;;;;;;;;;;;5019819;28;20381;-78
2023/03/20 04:21:46;;;;;;;;;;;;;;;;;;5016571;28;19933;-75
2023/03/20 04:24:12;;;;;;;;;;;;;;;;;;5027504;28;19925;-79
2023/03/20 04:26:39;;;;;;;;;;;;;;;;;;5030505;28;19929;-78
2023/03/20 04:29:05;;;;;;;;;;;;;;;;;;5032131;28;19929;-75
2023/03/20 04:31:31;;;;;;;;;;;;;;;;;;5026506;28;19933;-79
2023/03/20 04:33:57;;;;;;;;;;;;;;;;;;5039077;28;20392;-79
2023/03/20 04:36:23;;;;;;;;;;;;;;;;;;5022137;28;19933;-72
2023/03/20 04:38:49;;;;;;;;;;;;;;;;;;5031526;28;19939;-79
2023/03/20 04:41:15;;;;;;;;;;;;;;;;;;5040651;28;19936;-79
2023/03/20 04:43:41;;;;;;;;;;;;;;;;;;5020586;28;19928;-78
2023/03/20 04:46:07;;;;;;;;;;;;;;;;;;5028095;28;20380;-79
2023/03/20 04:48:33;;;;;;;;;;;;;;;;;;5026158;28;19990;-76
2023/03/20 04:50:59;;;;;;;;;;;;;;;;;;5033595;28;20374;-77
2023/03/20 04:53:24;;;;;;;;;;;;;;;;;;5017826;28;20048;-78
2023/03/20 04:55:50;;;;;;;;;;;;;;;;;;5006063;28;19953;-76
2023/03/20 04:58:16;;;;;;;;;;;;;;;;;;5017967;28;19964;-77
2023/03/20 05:00:42;;;;;;;;;;;;;;;;;;5019134;28;19936;-77
2023/03/20 05:03:08;;;;;;;;;;;;;;;;;;4996511;28;20392;-78
2023/03/20 05:05:36;;;;;;;;;;;;;;;;;;5012654;28;19936;-78
2023/03/20 05:08:02;;;;;;;;;;;;;;;;;;5013967;28;20450;-78
2023/03/20 05:10:28;;;;;;;;;;;;;;;;;;5019263;28;19925;-78
2023/03/20 05:12:54;;;;;;;;;;;;;;;;;;5018435;28;19969;-79
2023/03/20 05:15:20;;;;;;;;;;;;;;;;;;5023696;28;19929;-78
2023/03/20 05:17:47;;;;;;;;;;;;;;;;;;5016004;28;19937;-77
2023/03/20 05:20:12;;;;;;;;;;;;;;;;;;5014161;28;20480;-77
2023/03/20 05:22:38;;;;;;;;;;;;;;;;;;5012367;28;19988;-78
2023/03/20 05:25:04;;;;;;;;;;;;;;;;;;5019399;28;19933;-79
2023/03/20 05:27:30;;;;;;;;;;;;;;;;;;5020884;28;19929;-79
2023/03/20 05:29:56;;;;;;;;;;;;;;;;;;5018557;28;20395;-72
2023/03/20 05:32:22;;;;;;;;;;;;;;;;;;5017677;28;19977;-73
2023/03/20 05:34:48;;;;;;;;;;;;;;;;;;5023231;28;20377;-78
2023/03/20 05:37:14;;;;;;;;;;;;;;;;;;5002204;28;19928;-77
2023/03/20 05:39:40;;;;;;;;;;;;;;;;;;5004343;28;19932;-78
2023/03/20 05:42:06;;;;;;;;;;;;;;;;;;5016256;28;19929;-73
2023/03/20 05:44:32;;;;;;;;;;;;;;;;;;5016288;28;20320;-77
2023/03/20 05:46:58;;;;;;;;;;;;;;;;;;5015913;28;19971;-75
2023/03/20 05:49:24;;;;;;;;;;;;;;;;;;5017328;28;19921;-76
2023/03/20 05:51:50;;;;;;;;;;;;;;;;;;5019282;28;19979;-77
2023/03/20 05:54:15;;;;;;;;;;;;;;;;;;5018322;28;20502;-79
2023/03/20 05:56:41;;;;;;;;;;;;;;;;;;5014274;28;19925;-79
2023/03/20 05:59:07;;;;;;;;;;;;;;;;;;5023838;28;19929;-78
2023/03/20 06:01:33;;;;;;;;;;;;;;;;;;5017943;28;19936;-78
2023/03/20 06:03:59;;;;;;;;;;;;;;;;;;5019599;28;19973;-77
2023/03/20 06:06:25;;;;;;;;;;;;;;;;;;5026108;28;20416;-75
2023/03/20 06:08:51;;;;;;;;;;;;;;;;;;5020231;28;19939;-77
2023/03/20 06:11:17;;;;;;;;;;;;;;;;;;5017320;28;19921;-76
2023/03/20 06:13:43;;;;;;;;;;;;;;;;;;5016997;28;20721;-77
2023/03/20 06:16:09;;;;;;;;;;;;;;;;;;5017792;28;19987;-78
2023/03/20 06:18:35;;;;;;;;;;;;;;;;;;5017904;28;19932;-75
2023/03/20 06:21:01;;;;;;;;;;;;;;;;;;5015084;28;19929;-75
2023/03/20 06:23:27;;;;;;;;;;;;;;;;;;5028049;28;19929;-78
2023/03/20 06:25:53;;;;;;;;;;;;;;;;;;5029976;28;19935;-75
2023/03/20 06:28:19;;;;;;;;;;;;;;;;;;5021043;28;20080;-76
2023/03/20 06:30:45;;;;;;;;;;;;;;;;;;5024035;28;20047;-77
2023/03/20 06:33:11;;;;;;;;;;;;;;;;;;5015313;28;20607;-77
2023/03/20 06:35:36;;;;;;;;;;;;;;;;;;5015593;28;20039;-79
2023/03/20 06:38:02;;;;;;;;;;;;;;;;;;5017155;28;19940;-77
2023/03/20 06:40:28;;;;;;;;;;;;;;;;;;5013335;28;20010;-76
2023/03/20 06:42:55;;;;;;;;;;;;;;;;;;5014529;28;19972;-78
2023/03/20 06:45:20;;;;;;;;;;;;;;;;;;5016865;28;20425;-76
2023/03/20 06:47:46;;;;;;;;;;;;;;;;;;5000651;28;19931;-77
2023/03/20 06:50:12;;;;;;;;;;;;;;;;;;5004387;28;19937;-77
2023/03/20 06:52:38;;;;;;;;;;;;;;;;;;5009436;28;20312;-74
2023/03/20 06:55:04;;;;;;;;;;;;;;;;;;4992628;28;19925;-76
2023/03/20 06:57:30;;;;;;;;;;;;;;;;;;5011721;28;19929;-75
2023/03/20 06:59:56;;;;;;;;;;;;;;;;;;4994363;28;19929;-77
2023/03/20 07:02:23;;;;;;;;;;;;;;;;;;5009791;28;19987;-75
2023/03/20 07:04:49;;;;;;;;;;;;;;;;;;5008810;28;20507;-77
2023/03/20 07:07:16;;;;;;;;;;;;;;;;;;5012742;28;19961;-76
2023/03/20 07:09:42;;;;;;;;;;;;;;;;;;5010708;28;19991;-77
2023/03/20 07:12:08;;;;;;;;;;;;;;;;;;5017340;28;19947;-75
2023/03/20 07:14:34;;;;;;;;;;;;;;;;;;5008265;28;19929;-77
2023/03/20 07:17:00;;;;;;;;;;;;;;;;;;5012084;28;20336;-75
2023/03/20 07:19:26;;;;;;;;;;;;;;;;;;5012818;28;20257;-74
2023/03/20 07:21:55;;;;;;;;;;;;;;;;;;5008847;28;19935;-73
2023/03/20 07:24:25;;;;;;;;;;;;;;;;;;5004422;28;19933;-74
2023/03/20 07:26:51;;;;;;;;;;;;;;;;;;5009639;28;20138;-76
2023/03/20 07:29:17;;;;;;;;;;;;;;;;;;5015113;28;20463;-77
2023/03/20 07:31:42;;;;;;;;;;;;;;;;;;5012541;28;19933;-75
2023/03/20 07:34:08;;;;;;;;;;;;;;;;;;5016070;28;19967;-77
2023/03/20 07:36:34;;;;;;;;;;;;;;;;;;5016829;28;20483;-78
2023/03/20 07:39:00;;;;;;;;;;;;;;;;;;5012496;28;19969;-77
2023/03/20 07:41:26;;;;;;;;;;;;;;;;;;5017021;28;19929;-74
2023/03/20 07:43:52;;;;;;;;;;;;;;;;;;5014190;28;20170;-76
2023/03/20 07:46:18;;;;;;;;;;;;;;;;;;5011875;28;20475;-74
2023/03/20 07:48:44;;;;;;;;;;;;;;;;;;5014752;28;19929;-77
2023/03/20 07:51:10;;;;;;;;;;;;;;;;;;5014948;28;19921;-78
2023/03/20 07:53:36;;;;;;;;;;;;;;;;;;4996915;28;20542;-76
2023/03/20 07:56:02;;;;;;;;;;;;;;;;;;4990769;28;20262;-77
2023/03/20 07:58:27;;;;;;;;;;;;;;;;;;4998949;28;19962;-77
2023/03/20 08:00:53;;;;;;;;;;;;;;;;;;5016555;28;19925;-77
2023/03/20 08:03:19;;;;;;;;;;;;;;;;;;5015047;28;19933;-74
2023/03/20 08:05:45;;;;;;;;;;;;;;;;;;5012390;28;19950;-75
2023/03/20 08:08:11;;;;;;;;;;;;;;;;;;5011146;28;20399;-76
2023/03/20 08:10:37;;;;;;;;;;;;;;;;;;5013079;28;19932;-76
2023/03/20 08:13:03;;;;;;;;;;;;;;;;;;5015903;28;20592;-74
2023/03/20 08:15:29;;;;;;;;;;;;;;;;;;5012490;28;19929;-75
2023/03/20 08:17:57;;;;;;;;;;;;;;;;;;5014426;28;19929;-78
2023/03/20 08:20:23;;;;;;;;;;;;;;;;;;5000445;28;21160;-78
2023/03/20 08:22:49;;;;;;;;;;;;;;;;;;5012579;28;20092;-74
2023/03/20 08:25:15;;;;;;;;;;;;;;;;;;5013675;28;19998;-74
2023/03/20 08:27:41;;;;;;;;;;;;;;;;;;5015186;28;19937;-76
2023/03/20 08:30:08;;;;;;;;;;;;;;;;;;5012408;28;19941;-76
2023/03/20 08:32:34;;;;;;;;;;;;;;;;;;5019703;28;19932;-76
2023/03/20 08:35:00;;;;;;;;;;;;;;;;;;5016990;28;19921;-73
2023/03/20 08:37:26;;;;;;;;;;;;;;;;;;5018021;28;19929;-77
2023/03/20 08:39:52;;;;;;;;;;;;;;;;;;5017584;28;20344;-73
2023/03/20 08:42:18;;;;;;;;;;;;;;;;;;5017578;28;19932;-76
2023/03/20 08:44:44;;;;;;;;;;;;;;;;;;5020946;28;20027;-78
2023/03/20 08:47:10;;;;;;;;;;;;;;;;;;5023916;28;20367;-77
2023/03/20 08:49:36;;;;;;;;;;;;;;;;;;4998266;28;19929;-79
2023/03/20 08:52:02;;;;;;;;;;;;;;;;;;5013095;28;19935;-78
2023/03/20 08:54:28;;;;;;;;;;;;;;;;;;5017107;28;19925;-75
2023/03/20 08:56:55;;;;;;;;;;;;;;;;;;5019747;28;20016;-75
2023/03/20 08:59:21;;;;;;;;;;;;;;;;;;5017403;28;19960;-75
2023/03/20 09:01:47;;;;;;;;;;;;;;;;;;5013160;28;19925;-77
2023/03/20 09:04:12;;;;;;;;;;;;;;;;;;5017809;28;20031;-79
2023/03/20 09:06:38;;;;;;;;;;;;;;;;;;5020000;28;20028;-78
2023/03/20 09:09:04;;;;;;;;;;;;;;;;;;5021280;28;20513;-76
2023/03/20 09:11:31;;;;;;;;;;;;;;;;;;5021402;28;19924;-76
2023/03/20 09:13:56;;;;;;;;;;;;;;;;;;5001521;28;19932;-78
2023/03/20 09:16:22;;;;;;;;;;;;;;;;;;5021767;28;19929;-80
2023/03/20 09:18:48;;;;;;;;;;;;;;;;;;5019970;28;20149;-79
2023/03/20 09:21:14;;;;;;;;;;;;;;;;;;5028525;28;19924;-78
2023/03/20 09:23:40;;;;;;;;;;;;;;;;;;5019880;28;19944;-80
2023/03/20 09:26:06;;;;;;;;;;;;;;;;;;5026090;28;19928;-78
2023/03/20 09:28:32;;;;;;;;;;;;;;;;;;5021473;28;20087;-80
2023/03/20 09:30:58;;;;;;;;;;;;;;;;;;5018565;28;19940;-78
2023/03/20 09:33:24;;;;;;;;;;;;;;;;;;5017849;28;19929;-77
2023/03/20 09:35:50;;;;;;;;;;;;;;;;;;5022779;28;19933;-79
2023/03/20 09:38:16;;;;;;;;;;;;;;;;;;5021702;28;20274;-79
2023/03/20 09:40:42;;;;;;;;;;;;;;;;;;5017950;28;19968;-79
2023/03/20 09:43:08;;;;;;;;;;;;;;;;;;5021356;28;19926;-79
2023/03/20 09:45:34;;;;;;;;;;;;;;;;;;5020719;28;19940;-79
2023/03/20 09:48:00;;;;;;;;;;;;;;;;;;5026702;28;19936;-77
2023/03/20 09:50:26;;;;;;;;;;;;;;;;;;5021857;28;19933;-79
2023/03/20 09:52:52;;;;;;;;;;;;;;;;;;5025974;28;20401;-77
2023/03/20 09:55:17;;;;;;;;;;;;;;;;;;5004095;28;20329;-78
2023/03/20 09:57:43;;;;;;;;;;;;;;;;;;5017346;28;19932;-79
2023/03/20 10:00:10;;;;;;;;;;;;;;;;;;5018089;28;19925;-79
2023/03/20 10:02:36;;;;;;;;;;;;;;;;;;5020030;28;20577;-76
2023/03/20 10:05:01;;;;;;;;;;;;;;;;;;5028051;28;19929;-76
2023/03/20 10:07:27;;;;;;;;;;;;;;;;;;5021178;28;19929;-76
2023/03/20 10:09:53;;;;;;;;;;;;;;;;;;5019281;28;19936;-80
2023/03/20 10:12:19;;;;;;;;;;;;;;;;;;5025431;28;19929;-78
2023/03/20 10:14:45;;;;;;;;;;;;;;;;;;5017234;28;20032;-80
2023/03/20 10:17:11;;;;;;;;;;;;;;;;;;5022541;28;20445;-77
2023/03/20 10:19:37;;;;;;;;;;;;;;;;;;5022700;28;19929;-81
2023/03/20 10:22:03;;;;;;;;;;;;;;;;;;5019813;28;20014;-77
2023/03/20 10:24:29;;;;;;;;;;;;;;;;;;5018022;28;20503;-80
2023/03/20 10:26:55;;;;;;;;;;;;;;;;;;5019663;28;19932;-79
2023/03/20 10:29:22;;;;;;;;;;;;;;;;;;5021164;28;19924;-80
2023/03/20 10:31:48;;;;;;;;;;;;;;;;;;5011659;28;19968;-78
2023/03/20 10:34:14;;;;;;;;;;;;;;;;;;5019984;28;20028;-80
2023/03/20 10:36:40;;;;;;;;;;;;;;;;;;5023267;28;19948;-77
2023/03/20 10:39:06;;;;;;;;;;;;;;;;;;5020014;28;19956;-80
2023/03/20 10:41:32;;;;;;;;;;;;;;;;;;5014461;28;19984;-80
2023/03/20 10:43:57;;;;;;;;;;;;;;;;;;5031378;28;19929;-80
2023/03/20 10:46:23;;;;;;;;;;;;;;;;;;4999307;28;19929;-79
2023/03/20 10:48:49;;;;;;;;;;;;;;;;;;5018060;28;19964;-80
2023/03/20 10:51:15;;;;;;;;;;;;;;;;;;5021199;28;20473;-78
2023/03/20 10:53:41;;;;;;;;;;;;;;;;;;5016260;28;19933;-80
2023/03/20 10:56:07;;;;;;;;;;;;;;;;;;5022688;28;20381;-79
2023/03/20 10:58:33;;;;;;;;;;;;;;;;;;4995620;28;19936;-80
2023/03/20 11:00:59;;;;;;;;;;;;;;;;;;5019688;28;19929;-79
2023/03/20 11:03:25;;;;;;;;;;;;;;;;;;5018755;28;19971;-81
2023/03/20 11:05:51;;;;;;;;;;;;;;;;;;5025056;28;19925;-81
2023/03/20 11:08:17;;;;;;;;;;;;;;;;;;5024921;28;19977;-80
2023/03/20 11:10:43;;;;;;;;;;;;;;;;;;5027457;28;19933;-79
2023/03/20 11:13:09;;;;;;;;;;;;;;;;;;5020777;28;19960;-80
2023/03/20 11:15:36;;;;;;;;;;;;;;;;;;5010450;28;19928;-76
2023/03/20 11:18:02;;;;;;;;;;;;;;;;;;5021094;28;19936;-80
2023/03/20 11:20:28;;;;;;;;;;;;;;;;;;5023689;28;19925;-77
2023/03/20 11:22:54;;;;;;;;;;;;;;;;;;5021208;28;20633;-75
2023/03/20 11:25:20;;;;;;;;;;;;;;;;;;5024011;28;19940;-78
2023/03/20 11:27:46;;;;;;;;;;;;;;;;;;5003983;28;19925;-79
2023/03/20 11:30:14;;;;;;;;;;;;;;;;;;5019431;28;20048;-80
2023/03/20 11:32:40;;;;;;;;;;;;;;;;;;5017776;28;19935;-76
2023/03/20 11:35:06;;;;;;;;;;;;;;;;;;5022423;28;19929;-78
2023/03/20 11:37:32;;;;;;;;;;;;;;;;;;5022925;28;20282;-76
2023/03/20 11:39:58;;;;;;;;;;;;;;;;;;5007780;28;20668;-79
2023/03/20 11:42:24;;;;;;;;;;;;;;;;;;5007003;28;19929;-80
2023/03/20 11:44:50;;;;;;;;;;;;;;;;;;5020651;28;20034;-79
2023/03/20 11:47:16;;;;;;;;;;;;;;;;;;5024176;28;19936;-74
2023/03/20 11:49:42;;;;;;;;;;;;;;;;;;5016740;28;20325;-75
2023/03/20 11:52:08;;;;;;;;;;;;;;;;;;5007566;28;19983;-79
2023/03/20 11:54:34;;;;;;;;;;;;;;;;;;5021388;28;19921;-78
2023/03/20 11:57:00;;;;;;;;;;;;;;;;;;5021244;28;19937;-76
2023/03/20 11:59:26;;;;;;;;;;;;;;;;;;5021787;28;19928;-80
2023/03/20 12:01:52;;;;;;;;;;;;;;;;;;5020903;28;19943;-77
2023/03/20 12:04:18;;;;;;;;;;;;;;;;;;5015380;28;19936;-77
2023/03/20 12:06:44;;;;;;;;;;;;;;;;;;5007103;28;20022;-77
2023/03/20 12:09:10;;;;;;;;;;;;;;;;;;5021692;28;19964;-76
2023/03/20 12:11:36;;;;;;;;;;;;;;;;;;5022606;28;21264;-77
2023/03/20 12:14:03;;;;;;;;;;;;;;;;;;5018838;28;19959;-76
2023/03/20 12:16:29;;;;;;;;;;;;;;;;;;5017313;28;20289;-78
2023/03/20 12:18:55;;;;;;;;;;;;;;;;;;5011443;28;19933;-79
2023/03/20 12:21:21;;;;;;;;;;;;;;;;;;4991599;28;19932;-75
2023/03/20 12:23:47;;;;;;;;;;;;;;;;;;5011477;28;19998;-76
2023/03/20 12:26:13;;;;;;;;;;;;;;;;;;5010645;28;19933;-76
2023/03/20 12:28:39;;;;;;;;;;;;;;;;;;5011374;28;20019;-78
2023/03/20 12:31:06;;;;;;;;;;;;;;;;;;5013099;28;19933;-77
2023/03/20 12:33:32;;;;;;;;;;;;;;;;;;5010649;28;19983;-78
2023/03/20 12:35:58;;;;;;;;;;;;;;;;;;5013910;28;19930;-73
2023/03/20 12:38:24;;;;;;;;;;;;;;;;;;5010933;28;19929;-79
2023/03/20 12:40:50;;;;;;;;;;;;;;;;;;5009357;28;20296;-78
2023/03/20 12:43:16;;;;;;;;;;;;;;;;;;5013098;28;19940;-75
2023/03/20 12:45:42;;;;;;;;;;;;;;;;;;5010553;28;20453;-76
2023/03/20 12:48:08;;;;;;;;;;;;;;;;;;5011216;28;19940;-77
2023/03/20 12:50:34;;;;;;;;;;;;;;;;;;5010904;28;20015;-75
2023/03/20 12:53:00;;;;;;;;;;;;;;;;;;5008723;28;21043;-79
2023/03/20 12:55:26;;;;;;;;;;;;;;;;;;5022083;28;19936;-80
2023/03/20 12:57:51;;;;;;;;;;;;;;;;;;5017461;28;19925;-78
2023/03/20 13:00:17;;;;;;;;;;;;;;;;;;5000818;28;19935;-77
2023/03/20 13:02:43;;;;;;;;;;;;;;;;;;5013749;28;20003;-74
2023/03/20 13:05:09;;;;;;;;;;;;;;;;;;5010831;28;19933;-76
2023/03/20 13:07:35;;;;;;;;;;;;;;;;;;5008127;28;20397;-77
2023/03/20 13:10:01;;;;;;;;;;;;;;;;;;5010575;28;20402;-79
2023/03/20 13:12:27;;;;;;;;;;;;;;;;;;4991827;28;19925;-80
2023/03/20 13:14:53;;;;;;;;;;;;;;;;;;5014342;28;19935;-75
2023/03/20 13:17:19;;;;;;;;;;;;;;;;;;4998125;28;20079;-80
2023/03/20 13:19:45;;;;;;;;;;;;;;;;;;5021265;28;20023;-79
2023/03/20 13:22:11;;;;;;;;;;;;;;;;;;5016258;28;20870;-79
2023/03/20 13:24:37;;;;;;;;;;;;;;;;;;5018864;28;19925;-75
2023/03/20 13:27:03;;;;;;;;;;;;;;;;;;5017637;28;19928;-76
2023/03/20 13:29:29;;;;;;;;;;;;;;;;;;5002587;28;20008;-78
2023/03/20 13:31:55;;;;;;;;;;;;;;;;;;5021519;28;19941;-78
2023/03/20 13:34:20;;;;;;;;;;;;;;;;;;5016879;28;19925;-76
2023/03/20 13:36:46;;;;;;;;;;;;;;;;;;5020017;28;20069;-75
2023/03/20 13:39:12;;;;;;;;;;;;;;;;;;5014114;28;20364;-74
2023/03/20 13:41:38;;;;;;;;;;;;;;;;;;5014598;28;19929;-75
2023/03/20 13:44:04;;;;;;;;;;;;;;;;;;5015941;28;19932;-74
2023/03/20 13:46:30;;;;;;;;;;;;;;;;;;5016445;28;20297;-76
2023/03/20 13:48:56;;;;;;;;;;;;;;;;;;5016039;28;20518;-80
2023/03/20 13:51:22;;;;;;;;;;;;;;;;;;5015534;28;20354;-74
2023/03/20 13:53:48;;;;;;;;;;;;;;;;;;4999085;28;19936;-76
2023/03/20 13:56:14;;;;;;;;;;;;;;;;;;5014662;28;19929;-80
2023/03/20 13:58:40;;;;;;;;;;;;;;;;;;5016228;28;20039;-73
2023/03/20 14:01:05;;;;;;;;;;;;;;;;;;4994352;28;20020;-79
2023/03/20 14:03:31;;;;;;;;;;;;;;;;;;5016807;28;19933;-79
2023/03/20 14:05:57;;;;;;;;;;;;;;;;;;5009938;28;19971;-78
2023/03/20 14:08:23;;;;;;;;;;;;;;;;;;5012942;28;19929;-73
2023/03/20 14:10:49;;;;;;;;;;;;;;;;;;5015521;28;19929;-75
2023/03/20 14:13:15;;;;;;;;;;;;;;;;;;5012815;28;19936;-77
2023/03/20 14:15:41;;;;;;;;;;;;;;;;;;5018420;28;19979;-80
2023/03/20 14:18:07;;;;;;;;;;;;;;;;;;5012817;28;19979;-76
2023/03/20 14:20:33;;;;;;;;;;;;;;;;;;5016180;28;19929;-79
2023/03/20 14:22:59;;;;;;;;;;;;;;;;;;4993817;28;19929;-79
2023/03/20 14:25:25;;;;;;;;;;;;;;;;;;5016689;28;19959;-78
2023/03/20 14:27:51;;;;;;;;;;;;;;;;;;5015169;28;19936;-78
2023/03/20 14:30:17;;;;;;;;;;;;;;;;;;5014870;28;19929;-75
2023/03/20 14:32:42;;;;;;;;;;;;;;;;;;4997655;28;19933;-75
2023/03/20 14:35:08;;;;;;;;;;;;;;;;;;5001123;28;19980;-76
2023/03/20 14:37:35;;;;;;;;;;;;;;;;;;5015756;28;19925;-78
2023/03/20 14:40:01;;;;;;;;;;;;;;;;;;5011379;28;20024;-79
2023/03/20 14:42:27;;;;;;;;;;;;;;;;;;5016051;28;19972;-78
2023/03/20 14:44:53;;;;;;;;;;;;;;;;;;5014882;28;19929;-78
2023/03/20 14:47:19;;;;;;;;;;;;;;;;;;5014701;28;20376;-77
2023/03/20 14:49:45;;;;;;;;;;;;;;;;;;5016710;28;19933;-76
2023/03/20 14:52:11;;;;;;;;;;;;;;;;;;5016827;28;19921;-80
2023/03/20 14:54:37;;;;;;;;;;;;;;;;;;5016938;28;19929;-75
2023/03/20 14:57:03;;;;;;;;;;;;;;;;;;5013935;28;20407;-73
2023/03/20 14:59:29;;;;;;;;;;;;;;;;;;5015302;28;19929;-80
2023/03/20 15:47:03;;;;;;;;;;;;;;;;;;4913248;29;19985;-75
2023/03/20 15:49:29;;;;;;;;;;;;;;;;;;4908954;29;20441;-80
2023/03/20 15:51:55;;;;;;;;;;;;;;;;;;4920872;29;20624;-78
2023/03/20 15:54:21;;;;;;;;;;;;;;;;;;4924749;29;20019;-78
2023/03/20 15:56:47;;;;;;;;;;;;;;;;;;4904557;29;19931;-77
2023/03/20 15:59:13;;;;;;;;;;;;;;;;;;4907908;29;19935;-79
2023/03/20 16:01:39;;;;;;;;;;;;;;;;;;4922915;29;19934;-78
2023/03/20 16:04:05;;;;;;;;;;;;;;;;;;4916372;29;20342;-77
2023/03/20 16:06:31;;;;;;;;;;;;;;;;;;4923285;29;20020;-77
2023/03/20 16:08:57;;;;;;;;;;;;;;;;;;4925309;29;19933;-77
2023/03/20 16:11:23;;;;;;;;;;;;;;;;;;4919101;29;19984;-77
2023/03/20 16:13:49;;;;;;;;;;;;;;;;;;4925215;29;20307;-77
2023/03/20 16:16:14;;;;;;;;;;;;;;;;;;4908279;29;19931;-79
2023/03/20 16:18:40;;;;;;;;;;;;;;;;;;4922893;29;19930;-77
2023/03/20 16:21:06;;;;;;;;;;;;;;;;;;4926202;29;19931;-81
2023/03/20 16:23:32;;;;;;;;;;;;;;;;;;4923400;29;20306;-81
2023/03/20 16:25:58;;;;;;;;;;;;;;;;;;4920772;29;19934;-81
2023/03/20 16:28:24;;;;;;;;;;;;;;;;;;4907895;29;19966;-80
2023/03/20 16:30:50;;;;;;;;;;;;;;;;;;4911861;29;19937;-81
2023/03/20 16:33:16;;;;;;;;;;;;;;;;;;4925420;29;19939;-80
2023/03/20 16:35:42;;;;;;;;;;;;;;;;;;4923000;29;20306;-80
2023/03/20 16:38:08;;;;;;;;;;;;;;;;;;4927717;29;19945;-80
2023/03/20 16:40:34;;;;;;;;;;;;;;;;;;4923752;29;19930;-81
2023/03/20 16:43:00;;;;;;;;;;;;;;;;;;4924444;29;20346;-80
2023/03/20 16:45:26;;;;;;;;;;;;;;;;;;4922122;29;19930;-78
2023/03/20 16:47:52;;;;;;;;;;;;;;;;;;4906552;29;20390;-78
2023/03/20 16:50:18;;;;;;;;;;;;;;;;;;4918534;29;19938;-81
2023/03/20 16:52:44;;;;;;;;;;;;;;;;;;4920959;29;19957;-79
2023/03/20 16:55:10;;;;;;;;;;;;;;;;;;4904431;29;19943;-80
2023/03/20 16:57:36;;;;;;;;;;;;;;;;;;4924870;29;19927;-81
2023/03/20 17:00:03;;;;;;;;;;;;;;;;;;4921910;29;19937;-81
2023/03/20 17:02:29;;;;;;;;;;;;;;;;;;4916778;29;19931;-80
2023/03/20 17:04:55;;;;;;;;;;;;;;;;;;4916618;29;19935;-78
2023/03/20 17:07:26;;;;;;;;;;;;;;;;;;4913885;29;19934;-80
2023/03/20 17:09:53;;;;;;;;;;;;;;;;;;4918220;29;19934;-81
2023/03/20 17:12:18;;;;;;;;;;;;;;;;;;4917993;29;19930;-79
2023/03/20 17:14:44;;;;;;;;;;;;;;;;;;4916216;29;19931;-81
2023/03/20 17:17:10;;;;;;;;;;;;;;;;;;4917641;29;19935;-78
2023/03/20 17:19:36;;;;;;;;;;;;;;;;;;4914340;29;20447;-80
2023/03/20 17:22:04;;;;;;;;;;;;;;;;;;4917893;29;20294;-80